createdAt,value
2023-10-15T00:01:47.577Z,2.70
2023-10-15T00:06:55.214Z,2.60
2023-10-15T00:12:03.069Z,2.40
2023-10-15T00:17:11.184Z,2.50
2023-10-15T00:22:19.150Z,1.80
2023-10-15T00:27:26.688Z,2.20
2023-10-15T00:32:35.318Z,2.60
2023-10-15T00:37:54.119Z,2.50
2023-10-15T00:43:01.717Z,2.10
2023-10-15T00:48:12.997Z,3.60
2023-10-15T00:53:25.430Z,2.20
2023-10-15T00:58:40.373Z,2.10
2023-10-15T01:03:51.666Z,2.60
2023-10-15T01:09:01.042Z,1.90
2023-10-15T01:14:12.033Z,2.00
2023-10-15T01:19:22.063Z,2.00
2023-10-15T01:24:30.194Z,2.40
2023-10-15T01:34:46.140Z,2.40
2023-10-15T01:39:54.297Z,2.60
2023-10-15T01:45:15.575Z,2.70
2023-10-15T01:50:26.248Z,2.10
2023-10-15T01:55:37.928Z,2.80
2023-10-15T02:00:46.212Z,2.20
2023-10-15T02:05:55.698Z,2.10
2023-10-15T02:11:10.910Z,1.30
2023-10-15T02:16:19.930Z,2.40
2023-10-15T02:21:28.966Z,2.60
2023-10-15T02:26:36.615Z,2.50
2023-10-15T02:31:48.109Z,2.40
2023-10-15T02:36:55.870Z,1.80
2023-10-15T02:42:03.711Z,2.70
2023-10-15T02:47:20.999Z,1.70
2023-10-15T02:52:36.610Z,1.90
2023-10-15T02:57:45.338Z,1.70
2023-10-15T03:02:52.545Z,1.80
2023-10-15T03:08:02.029Z,2.60
2023-10-15T03:13:14.723Z,2.80
2023-10-15T03:18:24.878Z,3.00
2023-10-15T03:23:33.670Z,2.50
2023-10-15T03:28:47.248Z,2.00
2023-10-15T03:34:14.940Z,2.20
2023-10-15T03:39:49.263Z,2.30
2023-10-15T03:45:01.508Z,1.80
2023-10-15T03:50:11.016Z,2.10
2023-10-15T03:55:19.003Z,2.40
2023-10-15T04:05:52.836Z,3.20
2023-10-15T04:11:01.375Z,2.00
2023-10-15T04:16:11.332Z,2.60
2023-10-15T04:21:19.133Z,3.10
2023-10-15T04:26:30.690Z,2.20
2023-10-15T04:31:38.596Z,2.40
2023-10-15T04:41:52.490Z,2.50
2023-10-15T04:47:06.592Z,2.50
2023-10-15T04:52:20.307Z,2.80
2023-10-15T04:57:28.281Z,2.20
2023-10-15T05:02:35.563Z,3.40
2023-10-15T05:07:43.049Z,2.30
2023-10-15T05:12:53.101Z,2.40
2023-10-15T05:18:00.417Z,2.70
2023-10-15T05:23:08.151Z,2.50
2023-10-15T05:28:16.440Z,2.50
2023-10-15T05:33:23.867Z,1.80
2023-10-15T05:38:31.020Z,2.60
2023-10-15T05:43:38.821Z,2.10
2023-10-15T05:48:46.007Z,2.10
2023-10-15T05:53:53.318Z,2.80
2023-10-15T05:59:00.664Z,1.30
2023-10-15T06:04:08.368Z,2.10
2023-10-15T06:09:15.522Z,3.20
2023-10-15T06:14:25.667Z,2.40
2023-10-15T06:19:32.925Z,2.20
2023-10-15T06:24:40.767Z,1.80
2023-10-15T06:29:48.098Z,2.20
2023-10-15T06:34:55.556Z,2.40
2023-10-15T06:40:18.753Z,2.80
2023-10-15T06:45:28.969Z,2.50
2023-10-15T06:50:36.289Z,1.80
2023-10-15T06:55:47.399Z,2.50
2023-10-15T07:00:58.136Z,1.80
2023-10-15T07:06:10.374Z,1.70
2023-10-15T07:11:18.590Z,2.30
2023-10-15T07:16:26.366Z,2.90
2023-10-15T07:21:40.809Z,2.60
2023-10-15T07:26:49.912Z,2.60
2023-10-15T07:32:12.056Z,2.10
2023-10-15T07:37:20.201Z,2.00
2023-10-15T07:42:28.182Z,2.80
2023-10-15T07:52:41.975Z,2.30
2023-10-15T07:57:49.814Z,2.30
2023-10-15T08:03:00.268Z,2.20
2023-10-15T08:08:09.909Z,2.00
2023-10-15T08:13:20.116Z,2.40
2023-10-15T08:18:27.988Z,3.00
2023-10-15T08:23:35.341Z,2.30
2023-10-15T08:28:42.660Z,2.90
2023-10-15T08:33:51.409Z,2.50
2023-10-15T08:38:58.780Z,2.80
2023-10-15T08:44:09.342Z,2.40
2023-10-15T08:49:20.921Z,2.90
2023-10-15T08:54:29.163Z,2.80
2023-10-15T08:59:40.324Z,2.50
2023-10-15T09:04:50.175Z,2.30
2023-10-15T09:09:57.809Z,2.00
2023-10-15T09:15:18.501Z,3.60
2023-10-15T09:20:29.087Z,2.70
2023-10-15T09:25:37.996Z,3.00
2023-10-15T09:30:47.738Z,2.60
2023-10-15T09:35:55.348Z,2.90
2023-10-15T09:41:03.996Z,2.40
2023-10-15T09:46:12.112Z,2.80
2023-10-15T09:51:20.077Z,2.80
2023-10-15T10:01:35.660Z,2.70
2023-10-15T10:07:04.969Z,2.90
2023-10-15T10:12:29.306Z,2.80
2023-10-15T10:17:37.317Z,2.90
2023-10-15T10:22:57.207Z,3.40
2023-10-15T10:28:18.347Z,3.30
2023-10-15T10:33:55.390Z,2.80
2023-10-15T10:39:15.779Z,3.50
2023-10-15T10:44:41.014Z,3.70
2023-10-15T10:50:00.463Z,3.20
2023-10-15T10:55:38.589Z,3.80
2023-10-15T11:00:48.796Z,3.40
2023-10-15T11:05:57.463Z,3.00
2023-10-15T11:11:04.747Z,3.90
2023-10-15T11:16:14.553Z,3.70
2023-10-15T11:21:23.530Z,3.50
2023-10-15T11:26:32.561Z,3.30
2023-10-15T11:31:44.223Z,3.50
2023-10-15T11:36:58.173Z,3.60
2023-10-15T11:42:09.048Z,3.50
2023-10-15T11:47:21.353Z,2.70
2023-10-15T11:52:28.832Z,2.80
2023-10-15T11:57:40.663Z,3.20
2023-10-15T12:02:48.529Z,3.30
2023-10-15T12:13:03.259Z,3.60
2023-10-15T12:18:11.012Z,3.40
2023-10-15T12:23:18.345Z,2.90
2023-10-15T12:28:30.559Z,3.30
2023-10-15T12:33:40.166Z,3.60
2023-10-15T12:38:47.598Z,3.10
2023-10-15T12:44:00.213Z,3.10
2023-10-15T12:49:09.486Z,3.40
2023-10-15T12:54:30.586Z,3.10
2023-10-15T12:59:41.735Z,2.80
2023-10-15T13:09:57.425Z,2.80
2023-10-15T13:15:11.365Z,2.40
2023-10-15T13:20:23.542Z,3.30
2023-10-15T13:25:31.122Z,3.60
2023-10-15T13:30:38.422Z,2.70
2023-10-15T13:35:46.371Z,2.90
2023-10-15T13:40:56.383Z,2.80
2023-10-15T13:46:06.950Z,3.40
2023-10-15T13:51:14.914Z,2.90
2023-10-15T14:01:35.372Z,2.50
2023-10-15T14:06:44.228Z,2.70
2023-10-15T14:11:54.949Z,3.10
2023-10-15T14:17:03.813Z,3.20
2023-10-15T14:22:21.938Z,3.00
2023-10-15T14:27:29.530Z,2.50
2023-10-15T14:32:37.376Z,2.20
2023-10-15T14:37:45.186Z,3.20
2023-10-15T14:42:54.721Z,3.10
2023-10-15T14:48:04.820Z,3.20
2023-10-15T14:53:12.595Z,4.20
2023-10-15T14:58:20.080Z,3.10
2023-10-15T15:03:28.029Z,2.70
2023-10-15T15:13:41.240Z,3.10
2023-10-15T15:18:48.652Z,3.30
2023-10-15T15:23:56.089Z,2.90
2023-10-15T15:29:03.484Z,2.60
2023-10-15T15:34:13.637Z,2.50
2023-10-15T15:39:21.019Z,3.10
2023-10-15T15:44:28.598Z,3.40
2023-10-15T15:49:36.698Z,2.40
2023-10-15T15:54:44.605Z,3.30
2023-10-15T16:05:00.506Z,3.30
2023-10-15T16:10:14.458Z,3.60
2023-10-15T16:15:22.754Z,4.10
2023-10-15T16:20:31.008Z,3.60
2023-10-15T16:25:41.051Z,3.70
2023-10-15T16:30:54.345Z,3.50
2023-10-15T16:39:19.060Z,3.80
2023-10-15T16:44:28.385Z,3.20
2023-10-15T16:49:46.429Z,3.90
2023-10-15T16:55:16.005Z,3.30
2023-10-15T17:00:23.779Z,4.20
2023-10-15T17:06:23.006Z,3.80
2023-10-15T17:11:52.143Z,3.70
2023-10-15T17:17:05.005Z,4.20
2023-10-15T17:22:17.602Z,4.70
2023-10-15T17:27:27.299Z,3.90
2023-10-15T17:32:46.208Z,3.60
2023-10-15T17:38:20.020Z,4.80
2023-10-15T17:43:30.842Z,5.00
2023-10-15T17:48:44.403Z,4.30
2023-10-15T17:53:55.005Z,4.50
2023-10-15T17:59:18.678Z,3.30
2023-10-15T18:05:40.638Z,4.80
2023-10-15T18:10:50.181Z,3.40
2023-10-15T18:16:17.091Z,3.30
2023-10-15T18:21:32.862Z,4.80
2023-10-15T18:26:47.301Z,4.40
2023-10-15T18:32:15.422Z,4.00
2023-10-15T18:37:31.051Z,4.40
2023-10-15T18:42:39.317Z,4.30
2023-10-15T18:47:47.709Z,3.90
2023-10-15T18:52:56.736Z,4.20
2023-10-15T18:58:05.611Z,4.80
2023-10-15T19:03:15.785Z,4.10
2023-10-15T19:08:24.759Z,4.80
2023-10-15T19:13:34.852Z,3.70
2023-10-15T19:18:45.154Z,4.20
2023-10-15T19:23:57.215Z,3.60
2023-10-15T19:29:07.300Z,4.20
2023-10-15T19:34:15.153Z,4.60
2023-10-15T19:39:23.023Z,3.90
2023-10-15T19:44:31.334Z,4.20
2023-10-15T19:49:39.183Z,3.90
2023-10-15T19:54:47.549Z,4.60
2023-10-15T19:59:55.880Z,3.30
2023-10-15T20:05:05.352Z,3.40
2023-10-15T20:10:16.347Z,2.80
2023-10-15T20:15:28.113Z,3.00
2023-10-15T20:20:38.619Z,3.00
2023-10-15T20:25:46.787Z,3.00
2023-10-15T20:30:58.605Z,3.50
2023-10-15T20:36:09.268Z,3.70
2023-10-15T20:41:16.572Z,4.60
2023-10-15T20:46:24.512Z,3.10
2023-10-15T20:56:38.758Z,3.10
2023-10-15T21:01:56.650Z,3.60
2023-10-15T21:07:04.692Z,3.50
2023-10-15T21:12:12.560Z,3.30
2023-10-15T21:17:23.365Z,3.80
2023-10-15T21:22:31.023Z,2.80
2023-10-15T21:27:39.706Z,2.40
2023-10-15T21:32:47.248Z,2.30
2023-10-15T21:37:55.080Z,2.50
2023-10-15T21:43:02.309Z,2.40
2023-10-15T21:48:10.520Z,2.60
2023-10-15T21:53:17.885Z,2.10
2023-10-15T21:58:25.394Z,2.10
2023-10-15T22:03:32.882Z,2.40
2023-10-15T22:08:42.856Z,3.30
2023-10-15T22:14:00.216Z,3.10
2023-10-15T22:19:08.725Z,2.70
2023-10-15T22:24:21.186Z,2.80
2023-10-15T22:29:40.203Z,2.80
2023-10-15T22:34:48.510Z,3.10
2023-10-15T22:39:55.779Z,2.30
2023-10-15T22:45:02.977Z,2.70
2023-10-15T22:50:17.971Z,2.50
2023-10-15T22:55:25.537Z,2.50
2023-10-15T23:00:37.095Z,2.40
2023-10-15T23:05:44.757Z,1.60
2023-10-15T23:10:52.048Z,2.00
2023-10-15T23:15:59.356Z,2.20
2023-10-15T23:21:09.367Z,2.10
2023-10-15T23:26:17.190Z,2.30
2023-10-15T23:36:36.140Z,1.90
2023-10-15T23:41:44.355Z,2.20
2023-10-15T23:51:57.402Z,1.70
2023-10-15T23:57:05.451Z,1.90
